sensor_id;sensor_type;location;lat;lon;timestamp;pressure;altitude;pressure_sealevel;temperature;humidity
36386;BME280;24125;47.482;8.770;2022-10-19T00:01:28;97127.16;;;14.89;73.17
36386;BME280;24125;47.482;8.770;2022-10-19T00:04:01;97124.03;;;14.87;73.24
36386;BME280;24125;47.482;8.770;2022-10-19T00:06:39;97132.44;;;14.86;73.22
36386;BME280;24125;47.482;8.770;2022-10-19T00:09:15;97128.16;;;14.85;73.13
36386;BME280;24125;47.482;8.770;2022-10-19T00:11:49;97125.31;;;14.81;73.23
36386;BME280;24125;47.482;8.770;2022-10-19T00:14:24;97126.91;;;14.82;73.13
36386;BME280;24125;47.482;8.770;2022-10-19T00:16:57;97125.22;;;14.78;73.07
36386;BME280;24125;47.482;8.770;2022-10-19T00:19:30;97119.38;;;14.76;73.09
36386;BME280;24125;47.482;8.770;2022-10-19T00:22:03;97124.28;;;14.73;73.11
36386;BME280;24125;47.482;8.770;2022-10-19T00:24:39;97118.44;;;14.71;72.85
36386;BME280;24125;47.482;8.770;2022-10-19T00:27:12;97120.69;;;14.69;72.93
36386;BME280;24125;47.482;8.770;2022-10-19T00:29:47;97122.91;;;14.67;73.16
36386;BME280;24125;47.482;8.770;2022-10-19T00:32:20;97121.66;;;14.65;73.00
36386;BME280;24125;47.482;8.770;2022-10-19T00:34:53;97119.31;;;14.63;73.21
36386;BME280;24125;47.482;8.770;2022-10-19T00:37:26;97125.34;;;14.60;73.13
36386;BME280;24125;47.482;8.770;2022-10-19T00:40:00;97125.22;;;14.57;73.22
36386;BME280;24125;47.482;8.770;2022-10-19T00:42:33;97115.88;;;14.54;73.43
36386;BME280;24125;47.482;8.770;2022-10-19T00:45:12;97117.00;;;14.53;73.67
36386;BME280;24125;47.482;8.770;2022-10-19T00:47:46;97123.06;;;14.50;73.55
36386;BME280;24125;47.482;8.770;2022-10-19T00:50:19;97119.09;;;14.48;73.63
36386;BME280;24125;47.482;8.770;2022-10-19T00:52:52;97115.63;;;14.47;73.37
36386;BME280;24125;47.482;8.770;2022-10-19T00:55:24;97113.63;;;14.44;73.48
36386;BME280;24125;47.482;8.770;2022-10-19T00:57:58;97110.78;;;14.41;73.49
36386;BME280;24125;47.482;8.770;2022-10-19T01:00:32;97113.78;;;14.39;73.57
36386;BME280;24125;47.482;8.770;2022-10-19T01:03:07;97112.84;;;14.35;73.62
36386;BME280;24125;47.482;8.770;2022-10-19T01:05:41;97104.34;;;14.33;73.78
36386;BME280;24125;47.482;8.770;2022-10-19T01:08:15;97096.91;;;14.30;73.40
36386;BME280;24125;47.482;8.770;2022-10-19T01:10:53;97099.13;;;14.28;73.86
36386;BME280;24125;47.482;8.770;2022-10-19T01:13:36;97093.31;;;14.26;73.61
36386;BME280;24125;47.482;8.770;2022-10-19T01:16:17;97087.50;;;14.24;73.55
36386;BME280;24125;47.482;8.770;2022-10-19T01:19:00;97085.44;;;14.21;73.78
36386;BME280;24125;47.482;8.770;2022-10-19T01:21:39;97091.59;;;14.21;73.42
36386;BME280;24125;47.482;8.770;2022-10-19T01:24:41;97091.59;;;14.21;73.49
36386;BME280;24125;47.482;8.770;2022-10-19T01:27:39;97090.03;;;14.20;73.81
36386;BME280;24125;47.482;8.770;2022-10-19T01:30:21;97092.25;;;14.18;73.70
36386;BME280;24125;47.482;8.770;2022-10-19T01:33:08;97094.28;;;14.21;73.63
36386;BME280;24125;47.482;8.770;2022-10-19T01:35:50;97083.44;;;14.18;73.56
36386;BME280;24125;47.482;8.770;2022-10-19T01:38:30;97078.38;;;14.16;73.46
36386;BME280;24125;47.482;8.770;2022-10-19T01:41:13;97074.13;;;14.15;73.61
36386;BME280;24125;47.482;8.770;2022-10-19T01:43:53;97075.22;;;14.14;73.47
36386;BME280;24125;47.482;8.770;2022-10-19T01:46:34;97067.50;;;14.13;73.65
36386;BME280;24125;47.482;8.770;2022-10-19T01:49:11;97063.13;;;14.08;73.82
36386;BME280;24125;47.482;8.770;2022-10-19T01:51:49;97068.47;;;14.08;73.84
36386;BME280;24125;47.482;8.770;2022-10-19T01:54:27;97068.00;;;14.06;73.48
36386;BME280;24125;47.482;8.770;2022-10-19T01:57:05;97065.31;;;14.06;73.62
36386;BME280;24125;47.482;8.770;2022-10-19T01:59:41;97064.84;;;14.04;73.42
36386;BME280;24125;47.482;8.770;2022-10-19T02:02:17;97062.16;;;14.04;73.39
36386;BME280;24125;47.482;8.770;2022-10-19T02:04:52;97066.75;;;14.04;73.42
36386;BME280;24125;47.482;8.770;2022-10-19T02:07:29;97057.13;;;14.03;73.49
36386;BME280;24125;47.482;8.770;2022-10-19T02:10:02;97045.94;;;14.01;73.41
36386;BME280;24125;47.482;8.770;2022-10-19T02:12:35;97050.84;;;13.98;73.21
36386;BME280;24125;47.482;8.770;2022-10-19T02:15:11;97048.94;;;13.99;73.28
36386;BME280;24125;47.482;8.770;2022-10-19T02:17:49;97052.28;;;13.96;73.33
36386;BME280;24125;47.482;8.770;2022-10-19T02:20:23;97052.13;;;13.92;73.59
36386;BME280;24125;47.482;8.770;2022-10-19T02:22:56;97054.06;;;13.92;73.19
36386;BME280;24125;47.482;8.770;2022-10-19T02:25:29;97049.00;;;13.90;73.68
36386;BME280;24125;47.482;8.770;2022-10-19T02:28:03;97047.75;;;13.88;73.14
36386;BME280;24125;47.482;8.770;2022-10-19T02:30:36;97041.13;;;13.85;73.35
36386;BME280;24125;47.482;8.770;2022-10-19T02:33:11;97038.00;;;13.83;73.36
36386;BME280;24125;47.482;8.770;2022-10-19T02:35:44;97049.38;;;13.80;73.55
36386;BME280;24125;47.482;8.770;2022-10-19T02:38:20;97050.16;;;13.81;73.52
36386;BME280;24125;47.482;8.770;2022-10-19T02:40:59;97046.22;;;13.78;73.57
36386;BME280;24125;47.482;8.770;2022-10-19T02:43:37;97046.84;;;13.75;73.37
36386;BME280;24125;47.482;8.770;2022-10-19T02:46:16;97050.69;;;13.74;73.39
36386;BME280;24125;47.482;8.770;2022-10-19T02:48:53;97049.41;;;13.72;73.92
36386;BME280;24125;47.482;8.770;2022-10-19T02:51:29;97043.59;;;13.70;74.10
36386;BME280;24125;47.482;8.770;2022-10-19T02:54:04;97053.53;;;13.69;73.97
36386;BME280;24125;47.482;8.770;2022-10-19T02:56:37;97045.47;;;13.69;74.11
36386;BME280;24125;47.482;8.770;2022-10-19T02:59:10;97044.38;;;13.70;74.10
36386;BME280;24125;47.482;8.770;2022-10-19T03:01:43;97046.28;;;13.70;74.57
36386;BME280;24125;47.482;8.770;2022-10-19T03:04:17;97045.31;;;13.74;74.51
36386;BME280;24125;47.482;8.770;2022-10-19T03:06:50;97046.09;;;13.75;74.82
36386;BME280;24125;47.482;8.770;2022-10-19T03:09:23;97052.22;;;13.75;74.38
36386;BME280;24125;47.482;8.770;2022-10-19T03:11:56;97048.44;;;13.76;74.41
36386;BME280;24125;47.482;8.770;2022-10-19T03:14:29;97046.53;;;13.77;74.20
36386;BME280;24125;47.482;8.770;2022-10-19T03:17:02;97047.78;;;13.79;74.30
36386;BME280;24125;47.482;8.770;2022-10-19T03:19:37;97046.69;;;13.80;74.47
36386;BME280;24125;47.482;8.770;2022-10-19T03:22:09;97040.84;;;13.78;74.52
36386;BME280;24125;47.482;8.770;2022-10-19T03:24:42;97040.53;;;13.80;74.26
36386;BME280;24125;47.482;8.770;2022-10-19T03:27:15;97044.47;;;13.82;74.29
36386;BME280;24125;47.482;8.770;2022-10-19T03:29:48;97032.16;;;13.81;74.52
36386;BME280;24125;47.482;8.770;2022-10-19T03:32:21;97028.03;;;13.84;74.55
36386;BME280;24125;47.482;8.770;2022-10-19T03:34:55;97031.16;;;13.86;74.85
36386;BME280;24125;47.482;8.770;2022-10-19T03:37:28;97028.50;;;13.86;75.09
36386;BME280;24125;47.482;8.770;2022-10-19T03:40:01;97027.38;;;13.87;75.06
36386;BME280;24125;47.482;8.770;2022-10-19T03:42:34;97028.63;;;13.89;75.47
36386;BME280;24125;47.482;8.770;2022-10-19T03:45:08;97032.59;;;13.92;75.66
36386;BME280;24125;47.482;8.770;2022-10-19T03:47:41;97032.69;;;13.95;76.16
36386;BME280;24125;47.482;8.770;2022-10-19T03:50:15;97044.81;;;14.02;76.36
36386;BME280;24125;47.482;8.770;2022-10-19T03:52:48;97041.94;;;14.07;76.59
36386;BME280;24125;47.482;8.770;2022-10-19T03:55:21;97046.16;;;14.16;76.93
36386;BME280;24125;47.482;8.770;2022-10-19T03:57:54;97038.69;;;14.22;77.16
36386;BME280;24125;47.482;8.770;2022-10-19T04:00:27;97032.44;;;14.30;76.98
36386;BME280;24125;47.482;8.770;2022-10-19T04:03:00;97029.72;;;14.39;76.83
36386;BME280;24125;47.482;8.770;2022-10-19T04:05:34;97025.22;;;14.51;76.85
36386;BME280;24125;47.482;8.770;2022-10-19T04:08:07;97020.41;;;14.57;76.88
36386;BME280;24125;47.482;8.770;2022-10-19T04:10:40;97023.81;;;14.66;76.53
36386;BME280;24125;47.482;8.770;2022-10-19T04:13:13;97024.84;;;14.73;76.82
36386;BME280;24125;47.482;8.770;2022-10-19T04:15:46;97013.53;;;14.80;76.58
36386;BME280;24125;47.482;8.770;2022-10-19T04:18:18;97015.34;;;14.88;76.69
36386;BME280;24125;47.482;8.770;2022-10-19T04:20:56;97016.50;;;14.99;76.40
36386;BME280;24125;47.482;8.770;2022-10-19T04:23:31;97021.34;;;15.06;76.46
36386;BME280;24125;47.482;8.770;2022-10-19T04:26:06;97017.75;;;15.14;76.65
36386;BME280;24125;47.482;8.770;2022-10-19T04:28:39;97024.50;;;15.20;76.33
36386;BME280;24125;47.482;8.770;2022-10-19T04:31:12;97017.78;;;15.26;76.02
36386;BME280;24125;47.482;8.770;2022-10-19T04:33:45;97021.03;;;15.32;76.07
36386;BME280;24125;47.482;8.770;2022-10-19T04:36:19;97015.13;;;15.38;75.97
36386;BME280;24125;47.482;8.770;2022-10-19T04:38:52;97013.78;;;15.44;75.89
36386;BME280;24125;47.482;8.770;2022-10-19T04:41:25;97014.31;;;15.50;76.06
36386;BME280;24125;47.482;8.770;2022-10-19T04:44:00;97004.59;;;15.58;75.87
36386;BME280;24125;47.482;8.770;2022-10-19T04:46:33;97011.34;;;15.64;75.80
36386;BME280;24125;47.482;8.770;2022-10-19T04:49:07;97014.25;;;15.71;75.62
36386;BME280;24125;47.482;8.770;2022-10-19T04:51:42;97016.03;;;15.79;75.64
36386;BME280;24125;47.482;8.770;2022-10-19T04:54:15;97013.09;;;15.84;75.41
36386;BME280;24125;47.482;8.770;2022-10-19T04:56:47;97013.69;;;15.90;75.09
36386;BME280;24125;47.482;8.770;2022-10-19T04:59:20;97007.72;;;15.96;74.83
36386;BME280;24125;47.482;8.770;2022-10-19T05:01:53;96999.38;;;16.01;74.97
36386;BME280;24125;47.482;8.770;2022-10-19T05:04:26;97004.56;;;16.06;74.80
36386;BME280;24125;47.482;8.770;2022-10-19T05:07:00;97001.28;;;16.13;74.66
36386;BME280;24125;47.482;8.770;2022-10-19T05:09:33;96994.09;;;16.17;74.44
36386;BME280;24125;47.482;8.770;2022-10-19T05:12:07;96991.50;;;16.20;74.00
36386;BME280;24125;47.482;8.770;2022-10-19T05:14:39;96991.28;;;16.26;73.90
36386;BME280;24125;47.482;8.770;2022-10-19T05:17:13;96997.88;;;16.28;74.07
36386;BME280;24125;47.482;8.770;2022-10-19T05:19:46;97000.69;;;16.32;73.83
36386;BME280;24125;47.482;8.770;2022-10-19T05:22:21;96996.53;;;16.34;73.73
36386;BME280;24125;47.482;8.770;2022-10-19T05:24:54;96984.59;;;16.35;73.74
36386;BME280;24125;47.482;8.770;2022-10-19T05:27:28;96988.84;;;16.36;73.81
36386;BME280;24125;47.482;8.770;2022-10-19T05:30:02;96982.34;;;16.37;73.93
36386;BME280;24125;47.482;8.770;2022-10-19T05:32:35;96985.16;;;16.41;73.50
36386;BME280;24125;47.482;8.770;2022-10-19T05:35:08;96976.72;;;16.42;73.81
36386;BME280;24125;47.482;8.770;2022-10-19T05:37:42;96971.41;;;16.46;73.51
36386;BME280;24125;47.482;8.770;2022-10-19T05:40:15;96970.28;;;16.47;73.55
36386;BME280;24125;47.482;8.770;2022-10-19T05:42:48;96975.00;;;16.50;73.83
36386;BME280;24125;47.482;8.770;2022-10-19T05:45:21;96975.09;;;16.53;73.64
36386;BME280;24125;47.482;8.770;2022-10-19T05:47:54;96972.50;;;16.57;73.23
36386;BME280;24125;47.482;8.770;2022-10-19T05:50:27;96975.28;;;16.60;73.44
36386;BME280;24125;47.482;8.770;2022-10-19T05:53:01;96979.34;;;16.67;73.22
36386;BME280;24125;47.482;8.770;2022-10-19T05:55:34;96975.16;;;16.69;73.29
36386;BME280;24125;47.482;8.770;2022-10-19T05:58:07;96983.00;;;16.74;73.08
36386;BME280;24125;47.482;8.770;2022-10-19T06:00:40;96977.34;;;16.79;73.32
36386;BME280;24125;47.482;8.770;2022-10-19T06:03:12;96980.94;;;16.83;73.38
36386;BME280;24125;47.482;8.770;2022-10-19T06:05:46;96977.56;;;16.86;72.92
36386;BME280;24125;47.482;8.770;2022-10-19T06:08:21;96976.50;;;16.91;73.12
36386;BME280;24125;47.482;8.770;2022-10-19T06:11:03;96979.31;;;16.94;72.87
36386;BME280;24125;47.482;8.770;2022-10-19T06:13:38;96983.19;;;16.97;73.02
36386;BME280;24125;47.482;8.770;2022-10-19T06:16:13;96986.44;;;17.03;73.23
36386;BME280;24125;47.482;8.770;2022-10-19T06:18:46;96983.75;;;17.03;72.82
36386;BME280;24125;47.482;8.770;2022-10-19T06:21:22;96990.00;;;17.07;73.03
36386;BME280;24125;47.482;8.770;2022-10-19T06:23:58;96994.38;;;17.11;72.96
36386;BME280;24125;47.482;8.770;2022-10-19T06:26:32;96993.25;;;17.12;72.76
36386;BME280;24125;47.482;8.770;2022-10-19T06:29:06;96999.84;;;17.15;72.79
36386;BME280;24125;47.482;8.770;2022-10-19T06:31:38;96997.94;;;17.15;72.79
36386;BME280;24125;47.482;8.770;2022-10-19T06:34:11;96994.53;;;17.18;72.80
36386;BME280;24125;47.482;8.770;2022-10-19T06:36:44;96999.22;;;17.21;73.89
36386;BME280;24125;47.482;8.770;2022-10-19T06:39:19;96988.53;;;17.25;73.21
36386;BME280;24125;47.482;8.770;2022-10-19T06:41:52;97000.91;;;17.26;73.69
36386;BME280;24125;47.482;8.770;2022-10-19T06:44:25;96997.50;;;17.29;74.36
36386;BME280;24125;47.482;8.770;2022-10-19T06:46:57;97010.28;;;17.32;74.06
36386;BME280;24125;47.482;8.770;2022-10-19T06:49:30;97014.66;;;17.37;74.17
36386;BME280;24125;47.482;8.770;2022-10-19T06:52:06;97010.47;;;17.39;74.15
36386;BME280;24125;47.482;8.770;2022-10-19T06:54:40;97007.84;;;17.43;74.41
36386;BME280;24125;47.482;8.770;2022-10-19T06:57:13;97005.66;;;17.48;74.50
36386;BME280;24125;47.482;8.770;2022-10-19T06:59:46;97007.34;;;17.53;74.68
36386;BME280;24125;47.482;8.770;2022-10-19T07:02:23;97011.66;;;17.57;74.32
36386;BME280;24125;47.482;8.770;2022-10-19T07:04:56;97016.84;;;17.62;74.33
36386;BME280;24125;47.482;8.770;2022-10-19T07:07:33;97022.31;;;17.66;74.19
36386;BME280;24125;47.482;8.770;2022-10-19T07:10:10;97019.03;;;17.73;74.38
36386;BME280;24125;47.482;8.770;2022-10-19T07:12:43;97014.75;;;17.71;73.96
36386;BME280;24125;47.482;8.770;2022-10-19T07:15:15;97021.00;;;17.76;74.22
36386;BME280;24125;47.482;8.770;2022-10-19T07:17:48;97019.53;;;17.78;73.95
36386;BME280;24125;47.482;8.770;2022-10-19T07:20:21;97018.06;;;17.81;73.86
36386;BME280;24125;47.482;8.770;2022-10-19T07:22:54;97029.34;;;17.86;73.86
36386;BME280;24125;47.482;8.770;2022-10-19T07:25:28;97019.34;;;17.87;73.76
36386;BME280;24125;47.482;8.770;2022-10-19T07:28:01;97025.97;;;17.89;73.34
36386;BME280;24125;47.482;8.770;2022-10-19T07:30:36;97024.47;;;17.92;73.24
36386;BME280;24125;47.482;8.770;2022-10-19T07:33:09;97026.38;;;17.91;73.41
36386;BME280;24125;47.482;8.770;2022-10-19T07:35:42;97026.03;;;17.93;73.35
36386;BME280;24125;47.482;8.770;2022-10-19T07:38:15;97023.31;;;17.93;73.54
36386;BME280;24125;47.482;8.770;2022-10-19T07:40:49;97019.50;;;17.94;73.77
36386;BME280;24125;47.482;8.770;2022-10-19T07:43:22;97029.97;;;17.95;73.82
36386;BME280;24125;47.482;8.770;2022-10-19T07:45:59;97027.69;;;17.97;73.66
36386;BME280;24125;47.482;8.770;2022-10-19T07:48:33;97023.84;;;17.98;73.39
36386;BME280;24125;47.482;8.770;2022-10-19T07:51:08;97023.13;;;18.01;73.33
36386;BME280;24125;47.482;8.770;2022-10-19T07:53:42;97022.78;;;18.03;73.24
36386;BME280;24125;47.482;8.770;2022-10-19T07:56:19;97028.28;;;18.06;73.20
36386;BME280;24125;47.482;8.770;2022-10-19T07:58:53;97021.72;;;18.07;73.15
36386;BME280;24125;47.482;8.770;2022-10-19T08:01:28;97013.25;;;18.09;73.32
36386;BME280;24125;47.482;8.770;2022-10-19T08:04:01;97012.56;;;18.12;72.88
36386;BME280;24125;47.482;8.770;2022-10-19T08:06:54;97006.03;;;18.13;73.04
36386;BME280;24125;47.482;8.770;2022-10-19T08:09:27;97008.38;;;18.15;73.03
36386;BME280;24125;47.482;8.770;2022-10-19T08:12:21;97012.28;;;18.17;72.97
36386;BME280;24125;47.482;8.770;2022-10-19T08:14:54;97004.97;;;18.18;72.80
36386;BME280;24125;47.482;8.770;2022-10-19T08:17:26;97013.84;;;18.18;72.77
36386;BME280;24125;47.482;8.770;2022-10-19T08:19:59;97014.28;;;18.20;72.37
36386;BME280;24125;47.482;8.770;2022-10-19T08:22:32;97018.56;;;18.21;72.64
36386;BME280;24125;47.482;8.770;2022-10-19T08:25:06;97012.72;;;18.19;72.58
36386;BME280;24125;47.482;8.770;2022-10-19T08:27:40;97009.66;;;18.21;72.49
36386;BME280;24125;47.482;8.770;2022-10-19T08:30:13;97008.88;;;18.20;72.68
36386;BME280;24125;47.482;8.770;2022-10-19T08:32:46;97005.81;;;18.22;73.07
36386;BME280;24125;47.482;8.770;2022-10-19T08:35:19;97007.03;;;18.24;73.15
36386;BME280;24125;47.482;8.770;2022-10-19T08:37:52;97009.81;;;18.28;72.78
36386;BME280;24125;47.482;8.770;2022-10-19T08:40:29;97007.63;;;18.33;72.69
36386;BME280;24125;47.482;8.770;2022-10-19T08:43:10;97015.88;;;18.40;72.74
36386;BME280;24125;47.482;8.770;2022-10-19T08:45:47;97008.59;;;18.44;72.73
36386;BME280;24125;47.482;8.770;2022-10-19T08:48:27;97008.34;;;18.50;73.03
36386;BME280;24125;47.482;8.770;2022-10-19T08:51:04;97015.00;;;18.56;72.68
36386;BME280;24125;47.482;8.770;2022-10-19T08:53:49;96997.38;;;18.62;72.50
36386;BME280;24125;47.482;8.770;2022-10-19T08:56:28;97002.09;;;18.65;72.64
36386;BME280;24125;47.482;8.770;2022-10-19T08:59:29;96999.94;;;18.74;72.58
36386;BME280;24125;47.482;8.770;2022-10-19T09:02:12;96996.59;;;18.80;72.45
36386;BME280;24125;47.482;8.770;2022-10-19T09:04:52;96995.16;;;18.87;72.32
36386;BME280;24125;47.482;8.770;2022-10-19T09:07:28;96989.47;;;18.92;72.00
36386;BME280;24125;47.482;8.770;2022-10-19T09:10:09;96983.81;;;19.00;71.08
36386;BME280;24125;47.482;8.770;2022-10-19T09:12:54;96984.38;;;19.09;71.55
36386;BME280;24125;47.482;8.770;2022-10-19T09:15:34;96982.13;;;19.15;71.47
36386;BME280;24125;47.482;8.770;2022-10-19T09:18:10;96982.59;;;19.20;71.42
36386;BME280;24125;47.482;8.770;2022-10-19T09:20:47;96986.22;;;19.28;71.06
36386;BME280;24125;47.482;8.770;2022-10-19T09:23:25;96982.06;;;19.34;70.74
36386;BME280;24125;47.482;8.770;2022-10-19T09:25:58;96977.88;;;19.37;70.47
36386;BME280;24125;47.482;8.770;2022-10-19T09:28:42;96974.06;;;19.41;70.19
36386;BME280;24125;47.482;8.770;2022-10-19T09:31:21;96971.00;;;19.43;70.17
36386;BME280;24125;47.482;8.770;2022-10-19T09:34:05;96972.19;;;19.45;70.06
36386;BME280;24125;47.482;8.770;2022-10-19T09:36:41;96971.03;;;19.46;69.95
36386;BME280;24125;47.482;8.770;2022-10-19T09:39:24;96973.84;;;19.50;69.72
36386;BME280;24125;47.482;8.770;2022-10-19T09:42:07;96972.69;;;19.51;69.55
36386;BME280;24125;47.482;8.770;2022-10-19T09:44:42;96961.50;;;19.52;70.21
36386;BME280;24125;47.482;8.770;2022-10-19T09:47:28;96963.53;;;19.59;70.03
36386;BME280;24125;47.482;8.770;2022-10-19T09:50:17;96964.38;;;19.63;69.91
36386;BME280;24125;47.482;8.770;2022-10-19T09:52:51;96964.06;;;19.68;69.88
36386;BME280;24125;47.482;8.770;2022-10-19T09:55:34;96966.06;;;19.75;69.70
36386;BME280;24125;47.482;8.770;2022-10-19T09:58:16;96953.00;;;19.80;69.81
36386;BME280;24125;47.482;8.770;2022-10-19T10:00:51;96961.97;;;19.84;69.85
36386;BME280;24125;47.482;8.770;2022-10-19T10:03:28;96951.22;;;19.91;69.50
36386;BME280;24125;47.482;8.770;2022-10-19T10:06:05;96952.06;;;19.95;69.54
36386;BME280;24125;47.482;8.770;2022-10-19T10:08:44;96948.28;;;20.04;69.60
36386;BME280;24125;47.482;8.770;2022-10-19T10:11:22;96956.50;;;20.11;69.20
36386;BME280;24125;47.482;8.770;2022-10-19T10:13:57;96955.38;;;20.15;69.13
36386;BME280;24125;47.482;8.770;2022-10-19T10:16:35;96955.09;;;20.20;68.98
36386;BME280;24125;47.482;8.770;2022-10-19T10:19:12;96954.81;;;20.29;68.67
36386;BME280;24125;47.482;8.770;2022-10-19T10:21:48;96963.34;;;20.31;68.59
36386;BME280;24125;47.482;8.770;2022-10-19T10:24:22;96970.03;;;20.37;68.88
36386;BME280;24125;47.482;8.770;2022-10-19T10:26:58;96956.13;;;20.42;68.22
36386;BME280;24125;47.482;8.770;2022-10-19T10:29:32;96955.41;;;20.45;68.67
36386;BME280;24125;47.482;8.770;2022-10-19T10:32:07;96952.75;;;20.49;68.70
36386;BME280;24125;47.482;8.770;2022-10-19T10:34:46;96949.31;;;20.55;68.06
36386;BME280;24125;47.482;8.770;2022-10-19T10:37:29;96947.06;;;20.61;67.67
36386;BME280;24125;47.482;8.770;2022-10-19T10:40:18;96949.81;;;20.64;67.68
36386;BME280;24125;47.482;8.770;2022-10-19T10:42:56;96939.38;;;20.66;67.47
36386;BME280;24125;47.482;8.770;2022-10-19T10:45:37;96931.63;;;20.68;67.38
36386;BME280;24125;47.482;8.770;2022-10-19T10:48:19;96940.59;;;20.73;67.08
36386;BME280;24125;47.482;8.770;2022-10-19T10:50:54;96928.97;;;20.72;68.59
36386;BME280;24125;47.482;8.770;2022-10-19T10:53:31;96925.50;;;20.75;67.17
36386;BME280;24125;47.482;8.770;2022-10-19T10:56:20;96927.81;;;20.77;67.49
36386;BME280;24125;47.482;8.770;2022-10-19T10:58:57;96923.59;;;20.76;66.76
36386;BME280;24125;47.482;8.770;2022-10-19T11:01:35;96920.09;;;20.75;66.97
36386;BME280;24125;47.482;8.770;2022-10-19T11:04:16;96923.59;;;20.76;66.99
36386;BME280;24125;47.482;8.770;2022-10-19T11:06:57;96915.44;;;20.76;66.68
36386;BME280;24125;47.482;8.770;2022-10-19T11:09:35;96914.25;;;20.77;66.68
36386;BME280;24125;47.482;8.770;2022-10-19T11:12:12;96914.69;;;20.79;66.93
36386;BME280;24125;47.482;8.770;2022-10-19T11:14:50;96904.66;;;20.83;66.63
36386;BME280;24125;47.482;8.770;2022-10-19T11:17:28;96903.88;;;20.86;66.57
36386;BME280;24125;47.482;8.770;2022-10-19T11:20:05;96900.06;;;20.90;66.36
36386;BME280;24125;47.482;8.770;2022-10-19T11:22:43;96899.28;;;20.93;65.93
36386;BME280;24125;47.482;8.770;2022-10-19T11:25:25;96898.13;;;20.94;65.77
36386;BME280;24125;47.482;8.770;2022-10-19T11:28:11;96891.19;;;20.97;66.00
36386;BME280;24125;47.482;8.770;2022-10-19T11:30:55;96888.88;;;20.99;65.94
36386;BME280;24125;47.482;8.770;2022-10-19T11:33:38;96876.09;;;20.99;65.73
36386;BME280;24125;47.482;8.770;2022-10-19T11:36:29;96883.09;;;21.04;65.96
36386;BME280;24125;47.482;8.770;2022-10-19T11:39:22;96883.50;;;21.06;65.80
36386;BME280;24125;47.482;8.770;2022-10-19T11:42:09;96887.78;;;21.07;65.35
36386;BME280;24125;47.482;8.770;2022-10-19T11:44:51;96876.94;;;21.10;65.40
36386;BME280;24125;47.482;8.770;2022-10-19T11:47:43;96877.75;;;21.15;65.21
36386;BME280;24125;47.482;8.770;2022-10-19T11:50:34;96868.13;;;21.21;65.59
36386;BME280;24125;47.482;8.770;2022-10-19T11:53:11;96863.16;;;21.26;65.08
36386;BME280;24125;47.482;8.770;2022-10-19T11:55:56;96853.47;;;21.32;65.01
36386;BME280;24125;47.482;8.770;2022-10-19T12:01:36;96851.22;;;21.45;64.95
36386;BME280;24125;47.482;8.770;2022-10-19T12:04:24;96835.34;;;21.51;64.75
36386;BME280;24125;47.482;8.770;2022-10-19T12:07:09;96832.63;;;21.54;63.98
36386;BME280;24125;47.482;8.770;2022-10-19T12:09:53;96836.53;;;21.57;64.42
36386;BME280;24125;47.482;8.770;2022-10-19T12:12:35;96820.63;;;21.55;63.87
36386;BME280;24125;47.482;8.770;2022-10-19T12:15:22;96829.91;;;21.54;63.97
36386;BME280;24125;47.482;8.770;2022-10-19T12:18:01;96817.09;;;21.48;63.79
36386;BME280;24125;47.482;8.770;2022-10-19T12:20:37;96820.94;;;21.43;64.13
36386;BME280;24125;47.482;8.770;2022-10-19T12:23:22;96811.22;;;21.38;64.29
36386;BME280;24125;47.482;8.770;2022-10-19T12:25:57;96811.97;;;21.32;64.78
36386;BME280;24125;47.482;8.770;2022-10-19T12:28:37;96799.94;;;21.33;64.41
36386;BME280;24125;47.482;8.770;2022-10-19T12:31:11;96787.88;;;21.27;64.77
36386;BME280;24125;47.482;8.770;2022-10-19T12:33:48;96787.09;;;21.26;64.55
36386;BME280;24125;47.482;8.770;2022-10-19T12:36:28;96783.94;;;21.21;64.73
36386;BME280;24125;47.482;8.770;2022-10-19T12:39:10;96783.94;;;21.17;64.69
36386;BME280;24125;47.482;8.770;2022-10-19T12:41:46;96772.25;;;21.13;65.23
36386;BME280;24125;47.482;8.770;2022-10-19T12:44:38;96765.25;;;21.12;64.97
36386;BME280;24125;47.482;8.770;2022-10-19T12:47:18;96767.19;;;21.08;65.27
36386;BME280;24125;47.482;8.770;2022-10-19T12:49:51;96759.00;;;21.04;64.99
36386;BME280;24125;47.482;8.770;2022-10-19T12:52:38;96759.78;;;21.01;65.07
36386;BME280;24125;47.482;8.770;2022-10-19T12:55:24;96755.09;;;20.98;64.91
36386;BME280;24125;47.482;8.770;2022-10-19T12:58:02;96748.06;;;20.94;65.49
36386;BME280;24125;47.482;8.770;2022-10-19T13:00:37;96744.56;;;20.90;65.90
36386;BME280;24125;47.482;8.770;2022-10-19T13:03:14;96737.97;;;20.87;65.81
36386;BME280;24125;47.482;8.770;2022-10-19T13:05:55;96731.34;;;20.85;66.31
36386;BME280;24125;47.482;8.770;2022-10-19T13:08:31;96728.63;;;20.81;66.35
36386;BME280;24125;47.482;8.770;2022-10-19T13:11:10;96716.59;;;20.79;66.11
36386;BME280;24125;47.482;8.770;2022-10-19T13:13:55;96718.53;;;20.78;66.66
36386;BME280;24125;47.482;8.770;2022-10-19T13:16:57;96714.66;;;20.76;66.73
36386;BME280;24125;47.482;8.770;2022-10-19T13:19:30;96714.63;;;20.72;67.14
36386;BME280;24125;47.482;8.770;2022-10-19T13:22:26;96709.19;;;20.72;66.83
36386;BME280;24125;47.482;8.770;2022-10-19T13:25:19;96703.38;;;20.74;67.51
36386;BME280;24125;47.482;8.770;2022-10-19T13:27:56;96707.25;;;20.73;67.24
36386;BME280;24125;47.482;8.770;2022-10-19T13:31:00;96701.09;;;20.76;67.51
36386;BME280;24125;47.482;8.770;2022-10-19T13:33:58;96697.59;;;20.79;67.31
36386;BME280;24125;47.482;8.770;2022-10-19T13:36:31;96704.59;;;20.80;67.80
36386;BME280;24125;47.482;8.770;2022-10-19T13:39:13;96695.69;;;20.86;67.33
36386;BME280;24125;47.482;8.770;2022-10-19T13:41:49;96686.81;;;20.89;67.36
36386;BME280;24125;47.482;8.770;2022-10-19T13:44:26;96688.78;;;20.96;67.39
36386;BME280;24125;47.482;8.770;2022-10-19T13:47:28;96688.44;;;21.01;67.27
36386;BME280;24125;47.482;8.770;2022-10-19T13:50:31;96676.41;;;21.05;67.07
36386;BME280;24125;47.482;8.770;2022-10-19T13:53:34;96679.94;;;21.09;67.23
36386;BME280;24125;47.482;8.770;2022-10-19T13:56:34;96681.50;;;21.14;66.76